createdAt,value
2017-10-18T00:01:06.045Z,23.50
2017-10-18T00:03:33.563Z,23.40
2017-10-18T00:06:01.123Z,23.40
2017-10-18T00:08:28.704Z,23.40
2017-10-18T00:10:56.289Z,23.40
2017-10-18T00:13:23.823Z,23.40
2017-10-18T00:15:51.440Z,23.40
2017-10-18T00:18:18.986Z,23.40
2017-10-18T00:20:47.369Z,23.40
2017-10-18T00:23:15.686Z,23.40
2017-10-18T00:25:43.291Z,23.40
2017-10-18T00:28:10.816Z,23.40
2017-10-18T00:30:38.401Z,23.40
2017-10-18T00:33:05.932Z,23.50
2017-10-18T00:35:33.462Z,23.50
2017-10-18T00:38:01.029Z,23.40
2017-10-18T00:40:28.558Z,23.40
2017-10-18T00:42:56.871Z,23.50
2017-10-18T00:45:24.432Z,23.50
2017-10-18T00:47:51.946Z,23.40
2017-10-18T00:50:20.264Z,23.50
2017-10-18T00:52:47.815Z,23.50
2017-10-18T00:55:15.333Z,23.50
2017-10-18T00:57:43.648Z,23.50
2017-10-18T01:00:11.181Z,23.50
2017-10-18T01:02:39.486Z,23.50
2017-10-18T01:05:07.058Z,23.50
2017-10-18T01:07:34.600Z,23.50
2017-10-18T01:10:02.138Z,23.50
2017-10-18T01:12:30.504Z,23.50
2017-10-18T01:14:58.056Z,23.50
2017-10-18T01:17:25.591Z,23.50
2017-10-18T01:19:53.109Z,23.50
2017-10-18T01:22:20.785Z,23.50
2017-10-18T01:24:48.404Z,23.50
2017-10-18T01:27:16.728Z,23.50
2017-10-18T01:29:44.309Z,23.40
2017-10-18T01:32:11.850Z,23.50
2017-10-18T01:34:39.379Z,23.50
2017-10-18T01:37:06.940Z,23.50
2017-10-18T01:39:35.280Z,23.50
2017-10-18T01:42:02.859Z,23.50
2017-10-18T01:44:31.221Z,23.40
2017-10-18T01:46:58.746Z,23.50
2017-10-18T01:49:26.318Z,23.50
2017-10-18T01:51:53.846Z,23.50
2017-10-18T01:54:21.376Z,23.40
2017-10-18T01:56:48.919Z,23.50
2017-10-18T01:59:16.450Z,23.50
2017-10-18T02:01:43.984Z,23.50
2017-10-18T02:04:11.548Z,23.50
2017-10-18T02:06:39.118Z,23.50
2017-10-18T02:09:06.669Z,23.50
2017-10-18T02:11:34.226Z,23.50
2017-10-18T02:14:01.864Z,23.50
2017-10-18T02:16:30.220Z,23.50
2017-10-18T02:18:57.973Z,23.50
2017-10-18T02:21:25.498Z,23.50
2017-10-18T02:23:53.035Z,23.50
2017-10-18T02:26:20.724Z,23.50
2017-10-18T02:28:48.285Z,23.50
2017-10-18T02:31:15.821Z,23.50
2017-10-18T02:33:43.342Z,23.50
2017-10-18T02:36:10.923Z,23.50
2017-10-18T02:38:39.212Z,23.50
2017-10-18T02:41:06.778Z,23.50
2017-10-18T02:43:34.364Z,23.50
2017-10-18T02:46:01.908Z,23.50
2017-10-18T02:48:29.474Z,23.50
2017-10-18T02:50:58.680Z,23.50
2017-10-18T02:53:26.212Z,23.50
2017-10-18T02:55:53.780Z,23.50
2017-10-18T02:58:21.300Z,23.50
2017-10-18T03:00:49.677Z,23.50
2017-10-18T03:03:17.456Z,23.40
2017-10-18T03:05:45.776Z,23.50
2017-10-18T03:08:13.308Z,23.50
2017-10-18T03:10:40.848Z,23.50
2017-10-18T03:13:09.172Z,23.50
2017-10-18T03:15:36.738Z,23.50
2017-10-18T03:18:04.268Z,23.50
2017-10-18T03:20:31.789Z,23.40
2017-10-18T03:22:59.376Z,23.50
2017-10-18T03:25:26.933Z,23.50
2017-10-18T03:27:54.576Z,23.50
2017-10-18T03:30:22.878Z,23.50
2017-10-18T03:32:50.390Z,23.40
2017-10-18T03:35:17.965Z,23.40
2017-10-18T03:37:46.392Z,23.40
2017-10-18T03:40:13.980Z,23.40
2017-10-18T03:42:41.546Z,23.50
2017-10-18T03:45:09.128Z,23.50
2017-10-18T03:47:36.662Z,23.20
2017-10-18T03:50:04.259Z,23.50
2017-10-18T03:52:31.950Z,23.50
2017-10-18T03:54:59.508Z,23.50
2017-10-18T03:57:27.127Z,23.50
2017-10-18T03:59:54.699Z,23.50
2017-10-18T04:02:22.980Z,23.50
2017-10-18T04:07:23.248Z,23.50
2017-10-18T04:09:50.832Z,23.50
2017-10-18T04:12:18.413Z,23.50
2017-10-18T04:14:45.944Z,23.50
2017-10-18T04:17:13.515Z,23.50
2017-10-18T04:19:41.046Z,23.50
2017-10-18T04:22:08.836Z,23.50
2017-10-18T04:24:36.423Z,23.50
2017-10-18T04:27:04.075Z,23.50
2017-10-18T04:29:32.370Z,23.50
2017-10-18T04:32:00.707Z,23.50
2017-10-18T04:34:29.062Z,23.50
2017-10-18T04:36:56.611Z,23.40
2017-10-18T04:39:24.457Z,23.40
2017-10-18T04:41:52.786Z,23.50
2017-10-18T04:44:20.309Z,23.40
2017-10-18T04:46:48.000Z,23.50
2017-10-18T04:49:15.567Z,23.50
2017-10-18T04:51:43.113Z,23.40
2017-10-18T04:54:10.647Z,23.40
2017-10-18T04:56:38.223Z,23.50
2017-10-18T04:59:05.779Z,23.50
2017-10-18T05:01:33.323Z,23.50
2017-10-18T05:04:00.905Z,23.50
2017-10-18T05:06:28.435Z,23.50
2017-10-18T05:08:55.971Z,23.50
2017-10-18T05:11:23.543Z,23.50
2017-10-18T05:13:51.884Z,23.50
2017-10-18T05:16:19.519Z,23.50
2017-10-18T05:18:47.047Z,23.50
2017-10-18T05:21:15.379Z,23.50
2017-10-18T05:23:42.906Z,23.50
2017-10-18T05:26:10.449Z,23.50
2017-10-18T05:28:38.757Z,23.50
2017-10-18T05:31:06.313Z,23.50
2017-10-18T05:33:33.883Z,23.50
2017-10-18T05:36:01.515Z,23.50
2017-10-18T05:38:29.345Z,23.50
2017-10-18T05:40:58.484Z,23.50
2017-10-18T05:43:26.083Z,23.50
2017-10-18T05:45:53.624Z,23.50
2017-10-18T05:48:21.155Z,23.50
2017-10-18T05:50:48.743Z,23.50
2017-10-18T05:53:16.287Z,23.50
2017-10-18T05:55:43.837Z,23.50
2017-10-18T05:58:11.367Z,23.60
2017-10-18T06:00:39.712Z,23.60
2017-10-18T06:03:07.396Z,23.60
2017-10-18T06:05:34.989Z,23.60
2017-10-18T06:08:02.668Z,23.70
2017-10-18T06:10:30.319Z,23.60
2017-10-18T06:12:58.003Z,23.60
2017-10-18T06:15:25.583Z,23.60
2017-10-18T06:17:53.123Z,23.60
2017-10-18T06:20:20.893Z,23.60
2017-10-18T06:22:48.451Z,23.60
2017-10-18T06:25:15.995Z,23.60
2017-10-18T06:27:43.549Z,23.60
2017-10-18T06:30:11.915Z,23.50
2017-10-18T06:32:39.445Z,23.50
2017-10-18T06:35:07.005Z,23.50
2017-10-18T06:37:34.609Z,23.50
2017-10-18T06:40:02.178Z,23.40
2017-10-18T06:42:29.728Z,23.40
2017-10-18T06:44:57.319Z,23.50
2017-10-18T06:47:24.866Z,23.40
2017-10-18T06:49:52.399Z,23.40
2017-10-18T06:52:19.958Z,23.40
2017-10-18T06:54:47.530Z,23.40
2017-10-18T06:57:15.229Z,23.40
2017-10-18T06:59:42.789Z,23.40
2017-10-18T07:02:10.360Z,23.40
2017-10-18T07:04:37.911Z,23.40
2017-10-18T07:07:05.459Z,23.40
2017-10-18T07:09:33.003Z,23.40
2017-10-18T07:12:00.611Z,23.40
2017-10-18T07:14:29.211Z,23.40
2017-10-18T07:16:57.505Z,23.30
2017-10-18T07:19:25.137Z,23.30
2017-10-18T07:21:53.486Z,23.40
2017-10-18T07:24:21.025Z,23.30
2017-10-18T07:26:48.591Z,23.40
2017-10-18T07:29:16.945Z,23.40
2017-10-18T07:31:44.607Z,23.40
2017-10-18T07:34:12.152Z,23.50
2017-10-18T07:36:39.727Z,23.40
2017-10-18T07:39:07.244Z,23.40
2017-10-18T07:41:35.592Z,23.40
2017-10-18T07:44:03.128Z,23.40
2017-10-18T07:46:30.691Z,23.40
2017-10-18T07:48:58.261Z,23.40
2017-10-18T07:51:25.796Z,23.50
2017-10-18T07:53:53.375Z,23.40
2017-10-18T07:56:20.933Z,23.40
2017-10-18T07:58:48.521Z,23.40
2017-10-18T08:01:16.075Z,23.50
2017-10-18T08:03:43.611Z,23.40
2017-10-18T08:06:11.239Z,23.40
2017-10-18T08:08:38.825Z,23.50
2017-10-18T08:11:06.339Z,23.50
2017-10-18T08:13:34.645Z,23.40
2017-10-18T08:16:02.238Z,23.40
2017-10-18T08:18:29.761Z,23.50
2017-10-18T08:20:57.333Z,23.50
2017-10-18T08:23:25.073Z,23.50
2017-10-18T08:25:52.626Z,23.50
2017-10-18T08:28:21.279Z,23.50
2017-10-18T08:30:48.817Z,23.50
2017-10-18T08:33:16.351Z,23.50
2017-10-18T08:35:44.062Z,23.50
2017-10-18T08:38:11.612Z,23.50
2017-10-18T08:40:39.189Z,23.50
2017-10-18T08:43:06.729Z,23.50
2017-10-18T08:45:34.330Z,23.50
2017-10-18T08:48:02.823Z,23.50
2017-10-18T08:50:30.397Z,23.50
2017-10-18T08:52:57.911Z,23.50
2017-10-18T08:55:26.276Z,23.50
2017-10-18T08:57:53.809Z,23.50
2017-10-18T09:00:21.396Z,23.50
2017-10-18T09:02:48.933Z,23.50
2017-10-18T09:05:16.529Z,23.50
2017-10-18T09:07:44.129Z,23.50
2017-10-18T09:10:11.688Z,23.50
2017-10-18T09:12:39.210Z,23.50
2017-10-18T09:15:07.592Z,23.60
2017-10-18T09:17:35.124Z,23.50
2017-10-18T09:20:02.716Z,23.60
2017-10-18T09:22:31.066Z,23.60
2017-10-18T09:24:58.662Z,23.60
2017-10-18T09:27:26.943Z,23.60
2017-10-18T09:29:54.506Z,23.50
2017-10-18T09:32:22.129Z,23.60
2017-10-18T09:34:49.765Z,23.60
2017-10-18T09:37:17.307Z,23.60
2017-10-18T09:39:44.905Z,23.50
2017-10-18T09:42:12.466Z,23.60
2017-10-18T09:44:40.008Z,23.60
2017-10-18T09:47:07.570Z,23.60
2017-10-18T09:49:35.159Z,23.60
2017-10-18T09:52:02.714Z,23.60
2017-10-18T09:54:30.287Z,23.60
2017-10-18T09:56:58.784Z,23.60
2017-10-18T09:59:26.377Z,23.60
2017-10-18T10:01:53.895Z,23.60
2017-10-18T10:04:22.225Z,23.60
2017-10-18T10:06:49.857Z,23.60
2017-10-18T10:09:17.392Z,23.60
2017-10-18T10:11:45.709Z,23.60
2017-10-18T10:14:13.248Z,23.60
2017-10-18T10:16:40.871Z,23.60
2017-10-18T10:19:08.419Z,23.60
2017-10-18T10:21:36.036Z,23.60
2017-10-18T10:24:03.594Z,23.60
2017-10-18T10:26:31.357Z,23.60
2017-10-18T10:28:58.941Z,23.60
2017-10-18T10:31:26.486Z,23.60
2017-10-18T10:33:54.003Z,23.70
2017-10-18T10:36:22.360Z,23.70
2017-10-18T10:38:49.923Z,23.70
2017-10-18T10:41:18.249Z,23.70
2017-10-18T10:43:45.913Z,23.70
2017-10-18T10:46:13.483Z,23.70
2017-10-18T10:48:41.054Z,23.70
2017-10-18T10:51:08.659Z,23.70
2017-10-18T10:53:36.998Z,23.70
2017-10-18T10:56:04.539Z,23.70
2017-10-18T10:58:32.105Z,23.70
2017-10-18T11:00:59.659Z,23.70
2017-10-18T11:03:27.229Z,23.70
2017-10-18T11:05:54.868Z,23.70
2017-10-18T11:08:22.449Z,23.70
2017-10-18T11:10:49.987Z,23.70
2017-10-18T11:13:17.568Z,23.70
2017-10-18T11:15:45.115Z,23.70
2017-10-18T11:18:12.662Z,23.70
2017-10-18T11:20:40.234Z,23.70
2017-10-18T11:23:07.808Z,23.70
2017-10-18T11:25:35.369Z,23.70
2017-10-18T11:28:02.912Z,23.70
2017-10-18T11:30:30.483Z,23.70
2017-10-18T11:32:58.332Z,23.70
2017-10-18T11:35:25.859Z,23.70
2017-10-18T11:37:54.274Z,23.70
2017-10-18T11:40:21.817Z,23.70
2017-10-18T11:42:49.400Z,23.70
2017-10-18T11:45:16.944Z,23.70
2017-10-18T11:47:44.464Z,23.70
2017-10-18T11:50:12.798Z,23.70
2017-10-18T11:52:40.452Z,23.70
2017-10-18T11:55:07.977Z,23.70
2017-10-18T11:57:36.318Z,23.70
2017-10-18T12:00:03.838Z,23.70
2017-10-18T12:02:31.374Z,23.70
2017-10-18T12:04:59.732Z,23.70
2017-10-18T12:07:27.292Z,23.70
2017-10-18T12:09:54.877Z,23.70
2017-10-18T12:12:23.337Z,23.70
2017-10-18T12:14:51.681Z,23.70
2017-10-18T12:17:19.233Z,23.70
2017-10-18T12:19:46.966Z,23.70
2017-10-18T12:22:14.503Z,23.70
2017-10-18T12:24:42.818Z,23.70
2017-10-18T12:27:10.378Z,23.70
2017-10-18T12:29:37.916Z,23.70
2017-10-18T12:32:05.500Z,23.80
2017-10-18T12:34:33.048Z,23.70
2017-10-18T12:37:00.700Z,23.70
2017-10-18T12:39:28.250Z,23.80
2017-10-18T12:41:56.688Z,23.80
2017-10-18T12:44:24.233Z,23.80
2017-10-18T12:46:51.813Z,23.90
2017-10-18T12:49:19.374Z,23.90
2017-10-18T12:51:46.906Z,23.90
2017-10-18T12:54:14.558Z,23.90
2017-10-18T12:56:43.010Z,23.90
2017-10-18T12:59:11.326Z,23.90
2017-10-18T13:01:38.894Z,23.90
2017-10-18T13:04:06.438Z,23.90
2017-10-18T13:06:34.000Z,23.90
2017-10-18T13:09:01.640Z,23.90
2017-10-18T13:11:29.218Z,23.90
2017-10-18T13:13:56.761Z,23.90
2017-10-18T13:16:24.354Z,23.90
2017-10-18T13:18:52.020Z,23.90
2017-10-18T13:21:19.608Z,23.90
2017-10-18T13:23:47.135Z,23.90
2017-10-18T13:26:14.690Z,23.90
2017-10-18T13:28:42.250Z,24.00
2017-10-18T13:31:09.800Z,23.90
2017-10-18T13:33:37.388Z,24.00
2017-10-18T13:36:05.931Z,24.00
2017-10-18T13:38:33.482Z,24.00
2017-10-18T13:41:01.094Z,24.00
2017-10-18T13:43:29.445Z,24.10
2017-10-18T13:45:57.152Z,24.10
2017-10-18T13:48:25.468Z,24.10
2017-10-18T13:50:53.080Z,24.10
2017-10-18T13:53:20.653Z,24.10
2017-10-18T13:55:48.985Z,24.10
2017-10-18T13:58:16.563Z,24.10
2017-10-18T14:00:44.105Z,24.10
2017-10-18T14:03:11.768Z,24.10
2017-10-18T14:05:39.312Z,24.10
2017-10-18T14:08:06.875Z,24.10
2017-10-18T14:10:34.527Z,24.00
2017-10-18T14:13:02.079Z,24.00
2017-10-18T14:15:29.649Z,24.00
2017-10-18T14:17:57.413Z,23.90
2017-10-18T14:20:25.992Z,23.90
2017-10-18T14:22:53.541Z,23.90
2017-10-18T14:25:21.215Z,23.90
2017-10-18T14:27:48.889Z,23.90
2017-10-18T14:30:16.640Z,23.90
2017-10-18T14:32:44.202Z,23.90
2017-10-18T14:35:11.721Z,23.90
2017-10-18T14:37:39.678Z,23.90
2017-10-18T14:40:07.265Z,23.90
2017-10-18T14:42:34.886Z,23.90
2017-10-18T14:45:02.465Z,23.80
2017-10-18T14:47:30.070Z,23.90
2017-10-18T14:49:59.206Z,23.90
2017-10-18T14:52:26.751Z,23.90
2017-10-18T14:54:55.112Z,24.00
2017-10-18T14:57:22.920Z,24.00
2017-10-18T14:59:50.493Z,24.00
2017-10-18T15:02:18.140Z,24.00
2017-10-18T15:04:45.803Z,24.00
2017-10-18T15:07:13.345Z,24.00
2017-10-18T15:09:41.007Z,24.00
2017-10-18T15:12:08.546Z,24.10
2017-10-18T15:14:36.877Z,24.00
2017-10-18T15:17:04.470Z,24.00
2017-10-18T15:19:32.058Z,24.00
2017-10-18T15:22:00.390Z,24.00
2017-10-18T15:24:28.025Z,24.00
2017-10-18T15:26:55.593Z,24.00
2017-10-18T15:29:23.122Z,24.00
2017-10-18T15:31:50.868Z,24.00
2017-10-18T15:34:19.305Z,23.90
2017-10-18T15:36:46.853Z,23.90
2017-10-18T15:39:14.422Z,23.90
2017-10-18T15:41:42.004Z,23.90
2017-10-18T15:44:09.584Z,23.90
2017-10-18T15:46:37.915Z,23.90
2017-10-18T15:49:05.500Z,23.80
2017-10-18T15:51:33.069Z,23.80
2017-10-18T15:54:00.600Z,23.80
2017-10-18T15:56:28.137Z,23.80
2017-10-18T15:58:55.714Z,23.80
2017-10-18T16:01:23.259Z,23.80
2017-10-18T16:03:50.826Z,23.80
2017-10-18T16:06:18.375Z,23.80
2017-10-18T16:08:45.956Z,23.80
2017-10-18T16:11:13.558Z,23.80
2017-10-18T16:13:41.854Z,23.70
2017-10-18T16:16:09.419Z,23.70
2017-10-18T16:18:36.980Z,23.80
2017-10-18T16:21:04.515Z,23.90
2017-10-18T16:23:32.831Z,23.90
2017-10-18T16:26:00.367Z,24.00
2017-10-18T16:28:27.935Z,24.00
2017-10-18T16:30:55.512Z,24.10
2017-10-18T16:33:23.034Z,24.10
2017-10-18T16:35:51.379Z,24.20
2017-10-18T16:38:18.926Z,24.20
2017-10-18T16:40:46.522Z,24.30
2017-10-18T16:43:14.824Z,24.40
2017-10-18T16:45:42.372Z,24.30
2017-10-18T16:48:09.967Z,24.30
2017-10-18T16:50:37.504Z,24.30
2017-10-18T16:53:05.075Z,24.30
2017-10-18T16:55:32.667Z,24.20
2017-10-18T16:58:00.233Z,24.10
2017-10-18T17:00:27.829Z,24.10
2017-10-18T17:02:56.130Z,23.90
2017-10-18T17:05:23.691Z,24.00
2017-10-18T17:07:51.261Z,23.90
2017-10-18T17:10:18.792Z,23.80
2017-10-18T17:12:47.243Z,23.90
2017-10-18T17:15:14.791Z,23.80
2017-10-18T17:17:42.342Z,23.90
2017-10-18T17:20:09.936Z,23.80
2017-10-18T17:22:38.260Z,23.70
2017-10-18T17:25:05.835Z,23.70
2017-10-18T17:27:33.469Z,23.50
2017-10-18T17:30:00.988Z,23.50
2017-10-18T17:32:29.322Z,23.50
2017-10-18T17:34:56.959Z,23.50
2017-10-18T17:37:24.558Z,23.40
2017-10-18T17:39:52.077Z,23.50
2017-10-18T17:42:19.653Z,23.30
2017-10-18T17:44:47.243Z,23.50
2017-10-18T17:47:14.791Z,23.30
2017-10-18T17:49:42.511Z,23.30
2017-10-18T17:52:10.047Z,23.20
2017-10-18T17:54:38.367Z,23.10
2017-10-18T17:57:05.933Z,23.10
2017-10-18T17:59:33.575Z,23.10
2017-10-18T18:02:01.164Z,23.20
2017-10-18T18:04:29.031Z,23.40
2017-10-18T18:06:57.404Z,23.50
2017-10-18T18:09:24.943Z,23.50
2017-10-18T18:11:52.502Z,23.50
2017-10-18T18:14:20.096Z,23.50
2017-10-18T18:16:47.966Z,23.60
2017-10-18T18:19:15.525Z,23.60
2017-10-18T18:21:43.084Z,23.60
2017-10-18T18:24:10.695Z,23.60
2017-10-18T18:26:39.106Z,23.70
2017-10-18T18:29:06.685Z,23.70
2017-10-18T18:31:34.283Z,23.70
2017-10-18T18:34:02.633Z,23.70
2017-10-18T18:36:31.739Z,23.80
2017-10-18T18:38:59.289Z,23.80
2017-10-18T18:41:26.945Z,23.80
2017-10-18T18:43:54.507Z,23.80
2017-10-18T18:46:22.041Z,23.80
2017-10-18T18:48:49.779Z,23.80
2017-10-18T18:51:17.327Z,23.80
2017-10-18T18:53:45.636Z,23.80
2017-10-18T18:56:13.239Z,23.80
2017-10-18T18:58:40.945Z,23.80
2017-10-18T19:01:08.520Z,23.80
2017-10-18T19:03:36.127Z,23.80
2017-10-18T19:06:03.669Z,23.80
2017-10-18T19:08:31.196Z,23.80
2017-10-18T19:10:58.815Z,23.80
2017-10-18T19:13:27.138Z,23.80
2017-10-18T19:15:54.685Z,23.80
2017-10-18T19:18:22.259Z,23.80
2017-10-18T19:20:50.019Z,23.80
2017-10-18T19:23:17.583Z,23.80
2017-10-18T19:25:45.295Z,23.80
2017-10-18T19:28:13.771Z,23.80
2017-10-18T19:30:42.151Z,23.80
2017-10-18T19:33:09.693Z,23.80
2017-10-18T19:35:37.295Z,23.80
2017-10-18T19:38:04.859Z,23.80
2017-10-18T19:40:32.440Z,23.80
2017-10-18T19:43:00.043Z,23.80
2017-10-18T19:45:27.632Z,23.70
2017-10-18T19:47:55.330Z,23.70
2017-10-18T19:50:22.877Z,23.70
2017-10-18T19:52:50.475Z,23.70
2017-10-18T19:55:18.038Z,23.70
2017-10-18T19:57:45.611Z,23.70
2017-10-18T20:00:13.923Z,23.70
2017-10-18T20:02:41.489Z,23.70
2017-10-18T20:05:09.058Z,23.70
2017-10-18T20:07:36.653Z,23.70
2017-10-18T20:10:04.279Z,23.70
2017-10-18T20:12:31.835Z,23.70
2017-10-18T20:14:59.442Z,23.70
2017-10-18T20:17:28.592Z,23.70
2017-10-18T20:19:56.195Z,23.70
2017-10-18T20:22:25.254Z,23.70
2017-10-18T20:24:52.847Z,23.70
2017-10-18T20:27:20.375Z,23.70
2017-10-18T20:29:48.048Z,23.70
2017-10-18T20:32:15.607Z,23.70
2017-10-18T20:34:43.138Z,23.70
2017-10-18T20:37:10.719Z,23.70
2017-10-18T20:39:38.272Z,23.70
2017-10-18T20:42:05.919Z,23.70
2017-10-18T20:44:33.531Z,23.60
2017-10-18T20:47:01.222Z,23.60
2017-10-18T20:49:29.526Z,23.70
2017-10-18T20:51:57.149Z,23.60
2017-10-18T20:54:25.502Z,23.60
2017-10-18T20:56:53.037Z,23.60
2017-10-18T20:59:20.667Z,23.60
2017-10-18T21:01:48.260Z,23.60
2017-10-18T21:04:15.942Z,23.60
2017-10-18T21:06:43.522Z,23.60
2017-10-18T21:09:11.216Z,23.60
2017-10-18T21:11:38.888Z,23.60
2017-10-18T21:14:06.438Z,23.70
2017-10-18T21:16:34.001Z,23.70
2017-10-18T21:19:01.612Z,23.60
2017-10-18T21:21:29.140Z,23.60
2017-10-18T21:23:56.670Z,23.60
2017-10-18T21:26:24.296Z,23.60
2017-10-18T21:28:51.900Z,23.60
2017-10-18T21:31:19.420Z,23.60
2017-10-18T21:33:47.802Z,23.60
2017-10-18T21:36:15.351Z,23.60
2017-10-18T21:38:42.918Z,23.60
2017-10-18T21:41:10.472Z,23.60
2017-10-18T21:43:38.056Z,23.60
2017-10-18T21:46:06.382Z,23.60
2017-10-18T21:48:33.937Z,23.60
2017-10-18T21:51:01.650Z,23.60
2017-10-18T21:53:30.166Z,23.60
2017-10-18T21:55:57.709Z,23.60
2017-10-18T21:58:25.228Z,23.60
2017-10-18T22:00:52.774Z,23.60
2017-10-18T22:03:20.350Z,23.60
2017-10-18T22:05:49.362Z,23.60
2017-10-18T22:08:17.671Z,23.60
2017-10-18T22:10:45.248Z,23.60
2017-10-18T22:13:12.784Z,23.60
2017-10-18T22:15:40.450Z,23.60
2017-10-18T22:18:08.016Z,23.60
2017-10-18T22:20:35.655Z,23.60
2017-10-18T22:23:03.319Z,23.60
2017-10-18T22:25:30.862Z,23.60
2017-10-18T22:27:59.182Z,23.60
2017-10-18T22:30:27.025Z,23.60
2017-10-18T22:32:54.594Z,23.60
2017-10-18T22:35:22.147Z,23.60
2017-10-18T22:37:49.705Z,23.60
2017-10-18T22:40:17.231Z,23.60
2017-10-18T22:42:44.802Z,23.50
2017-10-18T22:45:13.122Z,23.60
2017-10-18T22:47:40.660Z,23.60
2017-10-18T22:50:08.220Z,23.50
2017-10-18T22:52:35.748Z,23.50
2017-10-18T22:55:04.116Z,23.50
2017-10-18T22:57:31.659Z,23.50
2017-10-18T22:59:59.177Z,23.50
2017-10-18T23:02:26.718Z,23.50
2017-10-18T23:04:55.033Z,23.50
2017-10-18T23:07:22.584Z,23.50
2017-10-18T23:09:50.165Z,23.50
2017-10-18T23:12:17.695Z,23.50
2017-10-18T23:14:45.226Z,23.50
2017-10-18T23:17:13.576Z,23.50
2017-10-18T23:19:42.047Z,23.50
2017-10-18T23:22:09.726Z,23.50
2017-10-18T23:24:37.248Z,23.50
2017-10-18T23:27:04.859Z,23.50
2017-10-18T23:29:33.138Z,23.50
2017-10-18T23:32:01.866Z,23.50
2017-10-18T23:34:29.450Z,23.50
2017-10-18T23:36:56.974Z,23.50
2017-10-18T23:39:25.442Z,23.50
2017-10-18T23:41:52.956Z,23.50
2017-10-18T23:44:20.564Z,23.50
2017-10-18T23:46:48.229Z,23.50
2017-10-18T23:49:15.758Z,23.50
2017-10-18T23:51:44.054Z,23.50
2017-10-18T23:54:11.707Z,23.50
2017-10-18T23:56:40.055Z,23.50
2017-10-18T23:59:07.606Z,23.50
